createdAt,value
2018-03-04T00:00:17.426Z,0.90
2018-03-04T00:02:20.106Z,0.90
2018-03-04T00:04:22.795Z,0.90
2018-03-04T00:06:25.459Z,0.80
2018-03-04T00:08:28.139Z,0.90
2018-03-04T00:10:30.810Z,0.90
2018-03-04T00:12:33.490Z,0.80
2018-03-04T00:14:36.167Z,0.80
2018-03-04T00:16:38.820Z,0.80
2018-03-04T00:18:42.306Z,0.80
2018-03-04T00:20:45.731Z,0.90
2018-03-04T00:22:48.415Z,0.80
2018-03-04T00:24:51.090Z,0.80
2018-03-04T00:26:53.767Z,0.80
2018-03-04T00:28:56.465Z,0.90
2018-03-04T00:30:59.131Z,0.90
2018-03-04T00:33:01.821Z,0.90
2018-03-04T00:35:04.482Z,0.90
2018-03-04T00:37:07.244Z,0.90
2018-03-04T00:39:09.932Z,0.90
2018-03-04T00:41:12.608Z,0.90
2018-03-04T00:43:15.367Z,0.90
2018-03-04T00:45:18.054Z,0.90
2018-03-04T00:47:20.722Z,0.90
2018-03-04T00:49:24.550Z,1.00
2018-03-04T00:51:27.227Z,1.00
2018-03-04T00:53:29.891Z,1.00
2018-03-04T00:55:32.579Z,0.90
2018-03-04T00:57:35.460Z,1.00
2018-03-04T00:59:38.233Z,1.00
2018-03-04T01:01:40.890Z,1.00
2018-03-04T01:03:43.612Z,1.00
2018-03-04T01:05:46.288Z,1.00
2018-03-04T01:07:48.959Z,1.00
2018-03-04T01:09:51.652Z,1.10
2018-03-04T01:11:54.307Z,1.10
2018-03-04T01:13:56.985Z,1.10
2018-03-04T01:15:59.738Z,1.10
2018-03-04T01:18:02.396Z,1.10
2018-03-04T01:20:05.088Z,1.10
2018-03-04T01:22:07.912Z,1.10
2018-03-04T01:24:11.336Z,1.10
2018-03-04T01:26:14.138Z,1.10
2018-03-04T01:28:16.945Z,1.10
2018-03-04T01:30:19.651Z,1.10
2018-03-04T01:32:23.201Z,1.10
2018-03-04T01:34:25.897Z,1.10
2018-03-04T01:36:28.571Z,1.10
2018-03-04T01:38:31.301Z,1.10
2018-03-04T01:40:33.979Z,1.10
2018-03-04T01:42:36.664Z,1.10
2018-03-04T01:44:39.332Z,1.10
2018-03-04T01:46:42.023Z,1.10
2018-03-04T01:48:44.799Z,1.10
2018-03-04T01:50:47.700Z,1.10
2018-03-04T01:52:50.408Z,1.20
2018-03-04T01:54:53.071Z,1.10
2018-03-04T01:56:55.890Z,1.20
2018-03-04T01:58:58.549Z,1.20
2018-03-04T02:01:01.992Z,1.20
2018-03-04T02:03:04.809Z,1.20
2018-03-04T02:05:07.482Z,1.20
2018-03-04T02:07:10.941Z,1.20
2018-03-04T02:09:13.639Z,1.20
2018-03-04T02:11:16.301Z,1.20
2018-03-04T02:13:19.194Z,1.20
2018-03-04T02:15:21.859Z,1.20
2018-03-04T02:17:24.535Z,1.20
2018-03-04T02:19:27.230Z,1.20
2018-03-04T02:21:29.905Z,1.20
2018-03-04T02:23:32.577Z,1.30
2018-03-04T02:25:35.252Z,1.20
2018-03-04T02:27:37.912Z,1.20
2018-03-04T02:29:40.599Z,1.20
2018-03-04T02:31:43.272Z,1.20
2018-03-04T02:33:45.963Z,1.30
2018-03-04T02:35:48.642Z,1.30
2018-03-04T02:37:51.319Z,1.30
2018-03-04T02:39:53.989Z,1.30
2018-03-04T02:41:56.668Z,1.30
2018-03-04T02:43:59.357Z,1.30
2018-03-04T02:46:02.035Z,1.30
2018-03-04T02:48:04.704Z,1.20
2018-03-04T02:50:07.398Z,1.20
2018-03-04T02:52:10.838Z,1.20
2018-03-04T02:54:13.526Z,1.20
2018-03-04T02:56:16.198Z,1.20
2018-03-04T02:58:18.875Z,1.30
2018-03-04T03:00:21.596Z,1.30
2018-03-04T03:02:25.161Z,1.30
2018-03-04T03:04:27.859Z,1.30
2018-03-04T03:06:30.587Z,1.30
2018-03-04T03:08:33.468Z,1.30
2018-03-04T03:10:36.535Z,1.30
2018-03-04T03:12:38.856Z,1.30
2018-03-04T03:14:41.528Z,1.30
2018-03-04T03:16:44.184Z,1.30
2018-03-04T03:18:46.858Z,1.30
2018-03-04T03:20:49.551Z,1.30
2018-03-04T03:22:52.207Z,1.30
2018-03-04T03:24:54.886Z,1.30
2018-03-04T03:26:57.576Z,1.30
2018-03-04T03:29:00.242Z,1.40
2018-03-04T03:31:02.953Z,1.40
2018-03-04T03:33:05.602Z,1.40
2018-03-04T03:35:08.258Z,1.40
2018-03-04T03:37:10.935Z,1.40
2018-03-04T03:39:13.668Z,1.40
2018-03-04T03:41:16.523Z,1.40
2018-03-04T03:43:19.172Z,1.40
2018-03-04T03:45:21.827Z,1.30
2018-03-04T03:47:24.518Z,1.30
2018-03-04T03:49:27.164Z,1.40
2018-03-04T03:51:30.608Z,1.40
2018-03-04T03:53:33.282Z,1.40
2018-03-04T03:55:35.932Z,1.40
2018-03-04T03:57:38.617Z,1.40
2018-03-04T03:59:41.265Z,1.40
2018-03-04T04:01:43.920Z,1.40
2018-03-04T04:03:46.599Z,1.40
2018-03-04T04:05:50.033Z,1.40
2018-03-04T04:07:52.720Z,1.40
2018-03-04T04:09:55.369Z,1.40
2018-03-04T04:11:58.032Z,1.40
2018-03-04T04:14:01.495Z,1.40
2018-03-04T04:16:04.152Z,1.40
2018-03-04T04:18:06.932Z,1.50
2018-03-04T04:20:09.584Z,1.40
2018-03-04T04:22:12.258Z,1.50
2018-03-04T04:24:14.920Z,1.40
2018-03-04T04:26:17.577Z,1.50
2018-03-04T04:28:21.049Z,1.50
2018-03-04T04:30:23.734Z,1.50
2018-03-04T04:32:26.450Z,1.50
2018-03-04T04:34:29.176Z,1.50
2018-03-04T04:36:31.845Z,1.50
2018-03-04T04:38:34.604Z,1.50
2018-03-04T04:40:37.278Z,1.50
2018-03-04T04:42:39.936Z,1.50
2018-03-04T04:44:42.630Z,1.50
2018-03-04T04:46:45.272Z,1.50
2018-03-04T04:48:48.728Z,1.60
2018-03-04T04:50:51.377Z,1.60
2018-03-04T04:52:54.043Z,1.60
2018-03-04T04:54:56.740Z,1.60
2018-03-04T04:56:59.412Z,1.60
2018-03-04T04:59:02.132Z,1.60
2018-03-04T05:01:05.587Z,1.60
2018-03-04T05:03:08.249Z,1.60
2018-03-04T05:05:11.038Z,1.60
2018-03-04T05:07:13.700Z,1.70
2018-03-04T05:09:16.345Z,1.70
2018-03-04T05:11:19.787Z,1.70
2018-03-04T05:13:22.456Z,1.60
2018-03-04T05:15:25.182Z,1.70
2018-03-04T05:17:28.618Z,1.70
2018-03-04T05:19:31.289Z,1.70
2018-03-04T05:21:33.980Z,1.60
2018-03-04T05:23:36.625Z,1.70
2018-03-04T05:25:39.292Z,1.70
2018-03-04T05:27:41.940Z,1.70
2018-03-04T05:29:44.588Z,1.70
2018-03-04T05:31:47.269Z,1.70
2018-03-04T05:33:49.928Z,1.70
2018-03-04T05:35:52.734Z,1.70
2018-03-04T05:37:55.408Z,1.70
2018-03-04T05:39:58.081Z,1.70
2018-03-04T05:42:00.766Z,1.70
2018-03-04T05:44:03.510Z,1.70
2018-03-04T05:46:06.220Z,1.70
2018-03-04T05:48:08.884Z,1.70
2018-03-04T05:50:13.563Z,1.70
2018-03-04T05:52:16.254Z,1.70
2018-03-04T05:54:18.914Z,1.70
2018-03-04T05:56:21.587Z,1.70
2018-03-04T05:58:24.272Z,1.70
2018-03-04T06:00:27.065Z,1.80
2018-03-04T06:02:29.774Z,1.70
2018-03-04T06:04:32.422Z,1.80
2018-03-04T06:06:35.325Z,1.70
2018-03-04T06:08:37.990Z,1.80
2018-03-04T06:10:40.655Z,1.80
2018-03-04T06:12:43.542Z,1.70
2018-03-04T06:14:46.793Z,1.70
2018-03-04T06:16:50.321Z,1.80
2018-03-04T06:18:53.086Z,1.70
2018-03-04T06:20:55.869Z,1.80
2018-03-04T06:22:58.673Z,1.80
2018-03-04T06:25:02.781Z,1.80
2018-03-04T06:27:05.667Z,1.80
2018-03-04T06:29:08.620Z,1.70
2018-03-04T06:31:11.401Z,1.80
2018-03-04T06:33:14.100Z,1.70
2018-03-04T06:35:16.769Z,1.70
2018-03-04T06:37:19.532Z,1.70
2018-03-04T06:39:22.322Z,1.80
2018-03-04T06:41:25.177Z,1.80
2018-03-04T06:43:27.880Z,1.80
2018-03-04T06:45:30.763Z,1.90
2018-03-04T06:47:33.610Z,2.00
2018-03-04T06:49:37.075Z,2.00
2018-03-04T06:51:39.745Z,2.00
2018-03-04T06:53:42.610Z,2.00
2018-03-04T06:55:45.279Z,2.00
2018-03-04T06:57:47.938Z,1.90
2018-03-04T06:59:50.915Z,1.90
2018-03-04T07:01:53.823Z,1.90
2018-03-04T07:03:56.496Z,2.00
2018-03-04T07:05:59.151Z,2.10
2018-03-04T07:08:01.903Z,2.20
2018-03-04T07:10:04.573Z,2.20
2018-03-04T07:12:08.020Z,2.20
2018-03-04T07:14:10.700Z,2.20
2018-03-04T07:16:13.357Z,2.30
2018-03-04T07:18:16.237Z,2.30
2018-03-04T07:20:19.128Z,2.30
2018-03-04T07:22:21.836Z,2.30
2018-03-04T07:24:24.531Z,2.30
2018-03-04T07:26:27.962Z,2.40
2018-03-04T07:28:30.640Z,2.40
2018-03-04T07:30:33.339Z,2.50
2018-03-04T07:32:36.105Z,2.50
2018-03-04T07:34:38.828Z,2.60
2018-03-04T07:36:42.362Z,2.60
2018-03-04T07:38:45.018Z,2.60
2018-03-04T07:40:47.888Z,2.70
2018-03-04T07:42:51.316Z,3.20
2018-03-04T07:44:53.977Z,3.20
2018-03-04T07:46:56.693Z,4.80
2018-03-04T07:48:59.350Z,5.90
2018-03-04T07:51:02.042Z,5.30
2018-03-04T07:53:04.694Z,4.90
2018-03-04T07:55:07.456Z,5.00
2018-03-04T07:57:10.131Z,5.70
2018-03-04T07:59:12.786Z,6.60
2018-03-04T08:01:16.257Z,7.20
2018-03-04T08:03:18.906Z,7.10
2018-03-04T08:05:21.568Z,5.00
2018-03-04T08:07:24.264Z,4.10
2018-03-04T08:09:26.925Z,3.90
2018-03-04T08:11:29.633Z,3.80
2018-03-04T08:13:32.471Z,3.90
2018-03-04T08:15:35.254Z,3.70
2018-03-04T08:17:38.065Z,3.80
2018-03-04T08:19:40.730Z,3.90
2018-03-04T08:21:43.382Z,3.80
2018-03-04T08:23:46.091Z,3.50
2018-03-04T08:25:50.263Z,3.50
2018-03-04T08:28:04.824Z,3.50
2018-03-04T08:30:07.497Z,3.50
2018-03-04T08:32:10.145Z,3.50
2018-03-04T08:34:13.597Z,3.90
2018-03-04T08:36:16.297Z,3.80
2018-03-04T08:38:18.980Z,3.90
2018-03-04T08:40:21.688Z,4.20
2018-03-04T08:42:24.314Z,4.90
2018-03-04T08:44:27.066Z,8.70
2018-03-04T08:46:29.728Z,9.40
2018-03-04T08:48:32.468Z,9.10
2018-03-04T08:50:35.898Z,5.50
2018-03-04T08:52:38.570Z,5.50
2018-03-04T08:54:41.249Z,6.20
2018-03-04T08:56:43.920Z,8.30
2018-03-04T08:58:46.596Z,9.60
2018-03-04T09:00:49.287Z,8.60
2018-03-04T09:02:52.018Z,6.90
2018-03-04T09:04:55.052Z,5.70
2018-03-04T09:06:57.705Z,4.80
2018-03-04T09:09:00.386Z,4.80
2018-03-04T09:11:03.070Z,4.70
2018-03-04T09:13:05.726Z,4.60
2018-03-04T09:15:09.204Z,4.50
2018-03-04T09:17:12.639Z,4.60
2018-03-04T09:19:15.314Z,4.60
2018-03-04T09:21:18.014Z,4.80
2018-03-04T09:23:20.716Z,4.80
2018-03-04T09:25:23.395Z,5.50
2018-03-04T09:27:26.054Z,5.80
2018-03-04T09:29:28.751Z,5.30
2018-03-04T09:31:31.487Z,5.10
2018-03-04T09:33:34.360Z,5.00
2018-03-04T09:35:37.049Z,5.20
2018-03-04T09:37:39.792Z,4.90
2018-03-04T09:39:42.457Z,4.90
2018-03-04T09:41:45.911Z,5.00
2018-03-04T09:43:48.575Z,4.90
2018-03-04T09:45:51.393Z,4.70
2018-03-04T09:47:54.852Z,4.80
2018-03-04T09:49:57.509Z,4.80
2018-03-04T09:52:00.231Z,5.00
2018-03-04T09:54:03.031Z,5.10
2018-03-04T09:56:06.479Z,5.40
2018-03-04T09:58:09.122Z,5.40
2018-03-04T10:00:12.029Z,6.10
2018-03-04T10:02:14.916Z,5.70
2018-03-04T10:04:17.681Z,5.50
2018-03-04T10:06:20.370Z,5.70
2018-03-04T10:08:23.030Z,5.80
2018-03-04T10:10:25.717Z,6.40
2018-03-04T10:12:28.404Z,6.10
2018-03-04T10:14:31.149Z,5.90
2018-03-04T10:16:33.836Z,5.70
2018-03-04T10:18:36.502Z,5.90
2018-03-04T10:20:39.182Z,6.30
2018-03-04T10:22:41.859Z,7.10
2018-03-04T10:24:44.637Z,9.70
2018-03-04T10:26:47.332Z,12.60
2018-03-04T10:28:49.985Z,12.50
2018-03-04T10:30:52.662Z,9.90
2018-03-04T10:32:55.371Z,7.70
2018-03-04T10:34:58.051Z,6.80
2018-03-04T10:37:00.736Z,6.70
2018-03-04T10:39:03.523Z,6.90
2018-03-04T10:41:06.226Z,6.60
2018-03-04T10:43:08.954Z,6.40
2018-03-04T10:45:11.691Z,6.30
2018-03-04T10:47:14.385Z,6.50
2018-03-04T10:49:17.040Z,7.20
2018-03-04T10:51:19.684Z,7.60
2018-03-04T10:53:22.363Z,7.30
2018-03-04T10:55:25.794Z,7.50
2018-03-04T10:57:28.770Z,7.50
2018-03-04T10:59:31.458Z,7.80
2018-03-04T11:01:34.963Z,8.10
2018-03-04T11:03:37.649Z,8.00
2018-03-04T11:05:40.377Z,7.90
2018-03-04T11:07:43.824Z,8.70
2018-03-04T11:09:46.507Z,8.70
2018-03-04T11:11:49.175Z,8.70
2018-03-04T11:13:51.988Z,9.00
2018-03-04T11:15:54.647Z,9.10
2018-03-04T11:17:57.392Z,9.00
2018-03-04T11:20:00.065Z,9.10
2018-03-04T11:22:02.790Z,9.00
2018-03-04T11:24:06.231Z,8.30
2018-03-04T11:26:08.902Z,8.30
2018-03-04T11:28:11.698Z,8.40
2018-03-04T11:30:14.355Z,8.70
2018-03-04T11:32:18.604Z,8.70
2018-03-04T11:34:21.631Z,8.60
2018-03-04T11:36:29.895Z,8.90
2018-03-04T11:38:34.159Z,8.90
2018-03-04T11:40:37.945Z,8.70
2018-03-04T11:42:42.957Z,8.90
2018-03-04T11:44:46.346Z,8.90
2018-03-04T11:46:49.157Z,8.80
2018-03-04T11:48:52.606Z,9.00
2018-03-04T11:50:55.604Z,9.00
2018-03-04T11:52:58.269Z,8.90
2018-03-04T11:55:01.008Z,8.80
2018-03-04T11:57:03.659Z,8.90
2018-03-04T11:59:07.097Z,9.50
2018-03-04T12:01:09.837Z,9.50
2018-03-04T12:03:13.275Z,9.60
2018-03-04T12:05:16.005Z,9.60
2018-03-04T12:07:19.467Z,9.30
2018-03-04T12:09:22.135Z,9.30
2018-03-04T12:11:25.699Z,9.30
2018-03-04T12:13:28.352Z,9.30
2018-03-04T12:15:31.817Z,9.20
2018-03-04T12:17:34.492Z,9.20
2018-03-04T12:19:37.169Z,9.30
2018-03-04T12:21:39.866Z,9.50
2018-03-04T12:23:43.282Z,9.60
2018-03-04T12:25:46.052Z,9.60
2018-03-04T12:27:51.143Z,9.50
2018-03-04T12:29:54.187Z,9.40
2018-03-04T12:31:56.977Z,9.60
2018-03-04T12:34:02.947Z,9.50
2018-03-04T12:36:08.624Z,9.60
2018-03-04T12:38:11.442Z,9.70
2018-03-04T12:40:14.308Z,9.60
2018-03-04T12:42:19.201Z,9.70
2018-03-04T12:44:22.600Z,9.70
2018-03-04T12:46:26.336Z,9.90
2018-03-04T12:48:29.398Z,9.90
2018-03-04T12:50:32.860Z,9.80
2018-03-04T12:52:36.916Z,9.70
2018-03-04T12:54:40.712Z,9.70
2018-03-04T12:56:44.621Z,9.90
2018-03-04T12:58:48.160Z,10.10
2018-03-04T13:00:50.846Z,10.10
2018-03-04T13:02:53.540Z,9.80
2018-03-04T13:04:56.938Z,9.90
2018-03-04T13:07:00.419Z,9.50
2018-03-04T13:09:03.133Z,9.50
2018-03-04T13:11:05.847Z,9.50
2018-03-04T13:13:08.524Z,9.50
2018-03-04T13:15:11.191Z,9.60
2018-03-04T13:17:13.892Z,9.60
2018-03-04T13:19:16.577Z,9.60
2018-03-04T13:21:19.297Z,9.70
2018-03-04T13:23:22.002Z,9.80
2018-03-04T13:25:24.669Z,9.70
2018-03-04T13:27:27.338Z,9.70
2018-03-04T13:29:30.056Z,9.70
2018-03-04T13:31:32.725Z,9.80
2018-03-04T13:33:36.195Z,9.80
2018-03-04T13:35:38.850Z,9.80
2018-03-04T13:37:42.310Z,10.00
2018-03-04T13:39:44.986Z,10.00
2018-03-04T13:41:47.903Z,9.90
2018-03-04T13:43:51.397Z,9.90
2018-03-04T13:45:54.805Z,9.90
2018-03-04T13:47:57.518Z,9.90
2018-03-04T13:50:01.016Z,10.00
2018-03-04T13:52:03.681Z,10.00
2018-03-04T13:54:06.399Z,9.90
2018-03-04T13:56:09.072Z,9.90
2018-03-04T13:58:11.889Z,10.00
2018-03-04T14:00:14.569Z,9.90
2018-03-04T14:02:17.228Z,10.00
2018-03-04T14:04:19.925Z,10.00
2018-03-04T14:06:22.580Z,10.10
2018-03-04T14:08:25.994Z,10.00
2018-03-04T14:10:28.683Z,10.00
2018-03-04T14:12:31.365Z,10.10
2018-03-04T14:14:34.075Z,10.10
2018-03-04T14:16:36.797Z,10.10
2018-03-04T14:18:39.477Z,10.10
2018-03-04T14:20:42.165Z,10.10
2018-03-04T14:22:44.833Z,10.10
2018-03-04T14:24:47.485Z,10.00
2018-03-04T14:26:50.231Z,10.00
2018-03-04T14:28:52.907Z,10.00
2018-03-04T14:30:55.592Z,10.00
2018-03-04T14:32:58.321Z,9.90
2018-03-04T14:37:28.777Z,9.90
2018-03-04T14:39:31.637Z,9.90
2018-03-04T14:41:34.335Z,9.90
2018-03-04T14:43:36.994Z,9.80
2018-03-04T14:45:39.676Z,9.90
2018-03-04T14:47:42.350Z,9.80
2018-03-04T14:49:44.997Z,9.80
2018-03-04T14:51:47.664Z,9.80
2018-03-04T14:53:51.089Z,9.80
2018-03-04T14:55:53.756Z,9.80
2018-03-04T14:57:56.560Z,9.70
2018-03-04T14:59:59.995Z,9.70
2018-03-04T15:02:03.479Z,9.70
2018-03-04T15:04:06.129Z,9.70
2018-03-04T15:06:08.804Z,9.70
2018-03-04T15:08:11.492Z,9.70
2018-03-04T15:10:14.150Z,9.70
2018-03-04T15:12:16.851Z,9.60
2018-03-04T15:14:20.303Z,9.50
2018-03-04T15:16:23.085Z,9.50
2018-03-04T15:18:25.773Z,9.50
2018-03-04T15:20:28.751Z,9.50
2018-03-04T15:22:31.537Z,9.50
2018-03-04T15:24:34.182Z,9.50
2018-03-04T15:26:36.980Z,9.40
2018-03-04T15:28:39.866Z,9.40
2018-03-04T15:30:42.658Z,9.50
2018-03-04T15:32:45.441Z,9.50
2018-03-04T15:34:48.213Z,9.40
2018-03-04T15:36:50.975Z,9.40
2018-03-04T15:38:54.671Z,9.40
2018-03-04T15:40:57.329Z,9.40
2018-03-04T15:43:00.014Z,9.40
2018-03-04T15:45:03.849Z,9.40
2018-03-04T15:47:06.534Z,9.30
2018-03-04T15:49:10.039Z,9.20
2018-03-04T15:51:12.740Z,9.20
2018-03-04T15:53:16.188Z,9.10
2018-03-04T15:55:19.600Z,9.20
2018-03-04T15:57:22.355Z,9.20
2018-03-04T15:59:25.126Z,9.20
2018-03-04T16:01:27.902Z,9.20
2018-03-04T16:03:30.593Z,9.20
2018-03-04T16:05:33.261Z,9.10
2018-03-04T16:07:35.923Z,9.20
2018-03-04T16:09:38.666Z,9.10
2018-03-04T16:11:42.095Z,9.00
2018-03-04T16:13:44.785Z,9.00
2018-03-04T16:15:47.441Z,9.00
2018-03-04T16:17:50.093Z,9.00
2018-03-04T16:19:53.543Z,8.90
2018-03-04T16:21:56.191Z,8.90
2018-03-04T16:23:58.862Z,8.80
2018-03-04T16:26:01.504Z,8.90
2018-03-04T16:28:05.009Z,8.90
2018-03-04T16:30:08.538Z,8.80
2018-03-04T16:32:11.207Z,8.80
2018-03-04T16:34:13.894Z,8.80
2018-03-04T16:36:16.592Z,8.70
2018-03-04T16:38:19.288Z,8.90
2018-03-04T16:40:22.034Z,8.80
2018-03-04T16:42:24.700Z,8.90
2018-03-04T16:44:27.381Z,8.80
2018-03-04T16:46:30.189Z,8.80
2018-03-04T16:48:32.934Z,8.70
2018-03-04T16:50:35.709Z,8.70
2018-03-04T16:52:38.378Z,8.70
2018-03-04T16:54:41.057Z,8.60
2018-03-04T16:56:43.745Z,8.50
2018-03-04T16:58:46.492Z,8.60
2018-03-04T17:00:50.136Z,8.50
2018-03-04T17:02:52.805Z,8.50
2018-03-04T17:04:56.614Z,8.50
2018-03-04T17:06:59.365Z,8.40
2018-03-04T17:09:02.151Z,8.50
2018-03-04T17:11:04.828Z,8.50
2018-03-04T17:13:07.523Z,8.60
2018-03-04T17:15:10.449Z,8.60
2018-03-04T17:17:13.872Z,8.50
2018-03-04T17:19:16.530Z,8.50
2018-03-04T17:21:20.101Z,8.50
2018-03-04T17:23:22.745Z,8.50
2018-03-04T17:25:25.422Z,8.40
2018-03-04T17:27:28.186Z,8.40
2018-03-04T17:29:30.857Z,8.40
2018-03-04T17:31:33.632Z,8.30
2018-03-04T17:33:36.273Z,8.20
2018-03-04T17:35:39.717Z,8.10
2018-03-04T17:37:42.376Z,8.10
2018-03-04T17:39:45.054Z,8.00
2018-03-04T17:41:49.446Z,7.90
2018-03-04T17:43:52.906Z,7.90
2018-03-04T17:45:55.612Z,7.90
2018-03-04T17:47:59.204Z,7.90
2018-03-04T17:50:02.868Z,7.80
2018-03-04T17:52:05.655Z,7.80
2018-03-04T17:54:08.333Z,7.80
2018-03-04T17:56:11.058Z,7.80
2018-03-04T17:58:13.762Z,7.70
2018-03-04T18:00:16.435Z,7.70
2018-03-04T18:02:19.122Z,7.60
2018-03-04T18:04:21.774Z,7.70
2018-03-04T18:06:24.451Z,7.70
2018-03-04T18:08:27.460Z,7.70
2018-03-04T18:10:30.116Z,7.70
2018-03-04T18:12:33.020Z,7.60
2018-03-04T18:14:35.879Z,7.60
2018-03-04T18:16:38.526Z,7.60
2018-03-04T18:18:41.964Z,7.70
2018-03-04T18:20:44.728Z,7.60
2018-03-04T18:22:47.514Z,7.60
2018-03-04T18:24:50.173Z,7.60
2018-03-04T18:26:52.927Z,7.60
2018-03-04T18:28:56.580Z,7.60
2018-03-04T18:31:00.412Z,7.60
2018-03-04T18:33:03.303Z,7.60
2018-03-04T18:35:06.732Z,7.50
2018-03-04T18:37:09.414Z,7.50
2018-03-04T18:39:12.090Z,7.40
2018-03-04T18:41:14.763Z,7.40
2018-03-04T18:43:17.559Z,7.40
2018-03-04T18:45:20.351Z,7.40
2018-03-04T18:47:23.082Z,7.30
2018-03-04T18:49:26.082Z,7.40
2018-03-04T18:51:28.862Z,7.40
2018-03-04T18:53:31.642Z,7.40
2018-03-04T18:55:34.351Z,7.30
2018-03-04T18:57:37.062Z,7.30
2018-03-04T18:59:40.504Z,7.20
2018-03-04T19:01:43.302Z,7.20
2018-03-04T19:03:45.991Z,7.20
2018-03-04T19:05:48.668Z,7.10
2018-03-04T19:07:51.321Z,7.00
2018-03-04T19:09:53.991Z,7.00
2018-03-04T19:11:56.672Z,7.00
2018-03-04T19:14:00.125Z,7.00
2018-03-04T19:16:03.681Z,7.00
2018-03-04T19:18:06.396Z,7.00
2018-03-04T19:20:09.838Z,6.90
2018-03-04T19:22:13.270Z,6.90
2018-03-04T19:24:15.910Z,6.80
2018-03-04T19:26:18.578Z,6.90
2018-03-04T19:28:21.235Z,6.90
2018-03-04T19:30:23.890Z,6.90
2018-03-04T19:32:26.570Z,6.80
2018-03-04T19:34:29.479Z,6.90
2018-03-04T19:36:32.279Z,6.90
2018-03-04T19:38:35.025Z,6.90
2018-03-04T19:40:37.706Z,6.90
2018-03-04T19:42:40.420Z,6.90
2018-03-04T19:44:43.145Z,6.90
2018-03-04T19:46:45.797Z,6.90
2018-03-04T19:48:49.333Z,6.80
2018-03-04T19:50:52.016Z,6.80
2018-03-04T19:52:54.701Z,6.80
2018-03-04T19:54:57.340Z,6.80
2018-03-04T19:57:00.009Z,6.70
2018-03-04T19:59:03.680Z,6.80
2018-03-04T20:01:06.335Z,6.80
2018-03-04T20:03:09.105Z,6.80
2018-03-04T20:05:15.138Z,6.80
2018-03-04T20:07:17.852Z,6.80
2018-03-04T20:09:20.600Z,6.80
2018-03-04T20:11:23.357Z,6.80
2018-03-04T20:13:26.052Z,6.70
2018-03-04T20:15:28.725Z,6.80
2018-03-04T20:17:31.403Z,6.80
2018-03-04T20:19:34.062Z,6.80
2018-03-04T20:21:36.871Z,6.70
2018-03-04T20:23:39.562Z,6.70
2018-03-04T20:25:42.227Z,6.60
2018-03-04T20:27:44.886Z,6.50
2018-03-04T20:29:47.561Z,6.60
2018-03-04T20:31:50.207Z,6.50
2018-03-04T20:33:53.698Z,6.40
2018-03-04T20:35:57.127Z,6.50
2018-03-04T20:37:59.831Z,6.50
2018-03-04T20:40:03.282Z,6.40
2018-03-04T20:42:05.939Z,6.40
2018-03-04T20:44:09.556Z,6.40
2018-03-04T20:46:12.210Z,6.40
2018-03-04T20:48:15.648Z,6.40
2018-03-04T20:50:18.487Z,6.40
2018-03-04T20:52:21.112Z,6.40
2018-03-04T20:54:23.780Z,6.40
2018-03-04T20:56:26.448Z,6.40
2018-03-04T20:58:29.096Z,6.40
2018-03-04T21:00:32.552Z,6.50
2018-03-04T21:02:35.244Z,6.50
2018-03-04T21:04:38.084Z,6.50
2018-03-04T21:06:40.858Z,6.60
2018-03-04T21:08:43.572Z,6.50
2018-03-04T21:10:46.454Z,6.50
2018-03-04T21:12:49.128Z,6.50
2018-03-04T21:14:51.842Z,6.50
2018-03-04T21:16:55.461Z,6.40
2018-03-04T21:18:58.126Z,6.40
2018-03-04T21:21:00.862Z,6.40
2018-03-04T21:23:03.554Z,6.40
2018-03-04T21:25:06.984Z,6.30
2018-03-04T21:27:09.791Z,6.30
2018-03-04T21:29:12.460Z,6.30
2018-03-04T21:31:15.187Z,6.40
2018-03-04T21:33:18.619Z,6.30
2018-03-04T21:35:21.360Z,6.30
2018-03-04T21:37:25.020Z,6.30
2018-03-04T21:39:27.695Z,6.30
2018-03-04T21:41:30.366Z,6.40
2018-03-04T21:43:33.039Z,6.30
2018-03-04T21:45:35.699Z,6.30
2018-03-04T21:47:38.378Z,6.30
2018-03-04T21:49:41.028Z,6.30
2018-03-04T21:51:43.734Z,6.30
2018-03-04T21:53:46.409Z,6.20
2018-03-04T21:55:49.079Z,6.20
2018-03-04T21:57:51.782Z,6.20
2018-03-04T21:59:54.493Z,6.20
2018-03-04T22:01:57.930Z,6.20
2018-03-04T22:04:00.580Z,6.20
2018-03-04T22:06:03.260Z,6.20
2018-03-04T22:08:06.720Z,6.20
2018-03-04T22:10:09.451Z,6.20
2018-03-04T22:12:12.168Z,6.30
2018-03-04T22:14:14.824Z,6.30
2018-03-04T22:16:17.575Z,6.30
2018-03-04T22:18:20.279Z,6.40
2018-03-04T22:20:22.962Z,6.30
2018-03-04T22:22:25.643Z,6.30
2018-03-04T22:24:28.334Z,6.40
2018-03-04T22:26:30.993Z,6.40
2018-03-04T22:28:33.698Z,6.40
2018-03-04T22:30:38.270Z,6.30
2018-03-04T22:32:40.926Z,6.40
2018-03-04T22:34:43.616Z,6.30
2018-03-04T22:36:46.288Z,6.30
2018-03-04T22:38:49.104Z,6.20
2018-03-04T22:40:51.772Z,6.10
2018-03-04T22:42:54.417Z,6.10
2018-03-04T22:44:57.101Z,6.00
2018-03-04T22:46:59.842Z,6.00
2018-03-04T22:49:03.294Z,5.90
2018-03-04T22:51:05.967Z,5.90
2018-03-04T22:53:08.607Z,5.80
2018-03-04T22:55:11.264Z,5.80
2018-03-04T22:57:14.693Z,5.80
2018-03-04T22:59:17.376Z,5.70
2018-03-04T23:01:20.122Z,5.70
2018-03-04T23:03:22.768Z,5.70
2018-03-04T23:05:25.428Z,5.60
2018-03-04T23:07:28.095Z,5.60
2018-03-04T23:09:30.993Z,5.60
2018-03-04T23:11:33.642Z,5.70
2018-03-04T23:13:36.293Z,5.70
2018-03-04T23:15:38.956Z,5.80
2018-03-04T23:17:41.608Z,5.80
2018-03-04T23:19:44.285Z,5.70
2018-03-04T23:21:47.003Z,5.80
2018-03-04T23:23:49.710Z,5.90
2018-03-04T23:25:52.403Z,6.00
2018-03-04T23:27:55.037Z,6.00
2018-03-04T23:29:57.684Z,6.00
2018-03-04T23:32:01.131Z,5.90
2018-03-04T23:34:03.768Z,5.90
2018-03-04T23:36:06.448Z,6.00
2018-03-04T23:38:09.093Z,5.90
2018-03-04T23:40:12.551Z,6.00
2018-03-04T23:42:15.229Z,6.00
2018-03-04T23:44:17.873Z,6.00
2018-03-04T23:46:20.633Z,6.00
2018-03-04T23:48:23.286Z,6.00
2018-03-04T23:50:25.931Z,6.00
2018-03-04T23:52:28.596Z,5.90
2018-03-04T23:54:31.229Z,5.90
2018-03-04T23:56:34.671Z,6.00
2018-03-04T23:58:37.311Z,6.00
